sensor_id;sensor_type;location;lat;lon;timestamp;pressure;altitude;pressure_sealevel;temperature;humidity
57885;BME280;43703;51.060;-0.086;2022-10-16T00:02:16;99235.37;;;8.27;71.95
57885;BME280;43703;51.060;-0.086;2022-10-16T00:04:42;99240.02;;;8.56;72.39
57885;BME280;43703;51.060;-0.086;2022-10-16T00:07:08;99238.67;;;8.64;70.94
57885;BME280;43703;51.060;-0.086;2022-10-16T00:09:34;99242.08;;;8.42;71.74
57885;BME280;43703;51.060;-0.086;2022-10-16T00:11:59;99244.06;;;8.68;71.35
57885;BME280;43703;51.060;-0.086;2022-10-16T00:14:25;99244.50;;;9.07;71.07
57885;BME280;43703;51.060;-0.086;2022-10-16T00:16:51;99245.22;;;9.09;70.74
57885;BME280;43703;51.060;-0.086;2022-10-16T00:19:16;99242.66;;;9.06;71.59
57885;BME280;43703;51.060;-0.086;2022-10-16T00:21:41;99250.73;;;9.72;69.51
57885;BME280;43703;51.060;-0.086;2022-10-16T00:24:08;99249.67;;;8.98;71.44
57885;BME280;43703;51.060;-0.086;2022-10-16T00:26:34;99254.66;;;9.70;69.07
57885;BME280;43703;51.060;-0.086;2022-10-16T00:28:58;99254.63;;;9.53;70.16
57885;BME280;43703;51.060;-0.086;2022-10-16T00:31:24;99253.96;;;9.25;71.11
57885;BME280;43703;51.060;-0.086;2022-10-16T00:33:50;99258.64;;;9.40;71.53
57885;BME280;43703;51.060;-0.086;2022-10-16T00:36:18;99263.59;;;9.78;69.17
57885;BME280;43703;51.060;-0.086;2022-10-16T00:38:41;99269.79;;;10.32;69.12
57885;BME280;43703;51.060;-0.086;2022-10-16T00:41:11;99273.66;;;10.18;69.16
57885;BME280;43703;51.060;-0.086;2022-10-16T00:43:36;99272.78;;;10.24;69.15
57885;BME280;43703;51.060;-0.086;2022-10-16T00:45:59;99277.53;;;9.59;70.60
57885;BME280;43703;51.060;-0.086;2022-10-16T00:48:24;99273.55;;;10.33;69.13
57885;BME280;43703;51.060;-0.086;2022-10-16T00:50:49;99279.64;;;9.67;71.21
57885;BME280;43703;51.060;-0.086;2022-10-16T00:53:14;99282.72;;;9.19;72.99
57885;BME280;43703;51.060;-0.086;2022-10-16T00:55:40;99282.88;;;9.75;71.36
57885;BME280;43703;51.060;-0.086;2022-10-16T00:58:05;99289.59;;;10.67;68.71
57885;BME280;43703;51.060;-0.086;2022-10-16T01:00:31;99281.44;;;10.24;68.64
57885;BME280;43703;51.060;-0.086;2022-10-16T01:02:59;99278.07;;;10.39;68.28
57885;BME280;43703;51.060;-0.086;2022-10-16T01:05:23;99288.34;;;10.73;66.38
57885;BME280;43703;51.060;-0.086;2022-10-16T01:07:53;99291.20;;;10.45;67.04
57885;BME280;43703;51.060;-0.086;2022-10-16T01:10:20;99295.19;;;9.66;69.46
57885;BME280;43703;51.060;-0.086;2022-10-16T01:12:42;99299.58;;;9.22;71.75
57885;BME280;43703;51.060;-0.086;2022-10-16T01:15:09;99298.97;;;9.42;72.68
57885;BME280;43703;51.060;-0.086;2022-10-16T01:17:37;99299.08;;;9.54;71.16
57885;BME280;43703;51.060;-0.086;2022-10-16T01:20:06;99300.52;;;9.25;72.95
57885;BME280;43703;51.060;-0.086;2022-10-16T01:22:24;99302.81;;;9.31;71.94
57885;BME280;43703;51.060;-0.086;2022-10-16T01:24:49;99298.64;;;10.08;70.15
57885;BME280;43703;51.060;-0.086;2022-10-16T01:27:15;99296.93;;;9.63;70.82
57885;BME280;43703;51.060;-0.086;2022-10-16T01:29:46;99300.12;;;8.68;74.82
57885;BME280;43703;51.060;-0.086;2022-10-16T01:32:10;99295.08;;;8.95;73.51
57885;BME280;43703;51.060;-0.086;2022-10-16T01:34:35;99297.31;;;8.58;76.25
57885;BME280;43703;51.060;-0.086;2022-10-16T01:37:00;99298.41;;;9.02;74.13
57885;BME280;43703;51.060;-0.086;2022-10-16T01:39:27;99298.80;;;9.15;73.14
57885;BME280;43703;51.060;-0.086;2022-10-16T01:41:51;99293.30;;;9.54;72.65
57885;BME280;43703;51.060;-0.086;2022-10-16T01:44:17;99294.89;;;8.26;76.50
57885;BME280;43703;51.060;-0.086;2022-10-16T01:46:42;99294.64;;;8.37;77.32
57885;BME280;43703;51.060;-0.086;2022-10-16T01:49:03;99298.95;;;8.56;76.36
57885;BME280;43703;51.060;-0.086;2022-10-16T01:51:29;99308.36;;;8.52;76.03
57885;BME280;43703;51.060;-0.086;2022-10-16T01:53:57;99312.26;;;8.93;74.68
57885;BME280;43703;51.060;-0.086;2022-10-16T01:56:21;99310.21;;;8.72;75.16
57885;BME280;43703;51.060;-0.086;2022-10-16T01:58:50;99312.75;;;8.68;74.93
57885;BME280;43703;51.060;-0.086;2022-10-16T02:01:16;99320.05;;;8.37;75.00
57885;BME280;43703;51.060;-0.086;2022-10-16T02:03:41;99326.22;;;8.69;75.58
57885;BME280;43703;51.060;-0.086;2022-10-16T02:06:04;99322.01;;;9.26;74.71
57885;BME280;43703;51.060;-0.086;2022-10-16T02:08:31;99315.99;;;8.77;72.61
57885;BME280;43703;51.060;-0.086;2022-10-16T02:10:56;99322.75;;;8.65;74.22
57885;BME280;43703;51.060;-0.086;2022-10-16T02:13:26;99318.59;;;8.29;75.35
57885;BME280;43703;51.060;-0.086;2022-10-16T02:15:47;99322.12;;;8.75;73.68
57885;BME280;43703;51.060;-0.086;2022-10-16T02:18:12;99328.73;;;8.54;74.44
57885;BME280;43703;51.060;-0.086;2022-10-16T02:20:44;99322.85;;;9.03;71.42
57885;BME280;43703;51.060;-0.086;2022-10-16T02:23:04;99332.43;;;8.81;71.84
57885;BME280;43703;51.060;-0.086;2022-10-16T02:25:31;99334.25;;;8.08;71.33
57885;BME280;43703;51.060;-0.086;2022-10-16T02:27:57;99339.21;;;8.35;71.36
57885;BME280;43703;51.060;-0.086;2022-10-16T02:30:22;99335.99;;;9.42;68.38
57885;BME280;43703;51.060;-0.086;2022-10-16T02:32:47;99335.74;;;8.33;69.54
57885;BME280;43703;51.060;-0.086;2022-10-16T02:35:11;99339.45;;;8.31;69.68
57885;BME280;43703;51.060;-0.086;2022-10-16T02:37:36;99342.72;;;8.37;69.55
57885;BME280;43703;51.060;-0.086;2022-10-16T02:40:02;99344.23;;;7.76;70.41
57885;BME280;43703;51.060;-0.086;2022-10-16T02:42:33;99346.02;;;8.04;69.69
57885;BME280;43703;51.060;-0.086;2022-10-16T02:44:51;99347.36;;;7.96;70.50
57885;BME280;43703;51.060;-0.086;2022-10-16T02:47:16;99355.59;;;7.88;69.67
57885;BME280;43703;51.060;-0.086;2022-10-16T02:49:41;99361.40;;;8.14;68.76
57885;BME280;43703;51.060;-0.086;2022-10-16T02:52:06;99362.95;;;8.10;69.24
57885;BME280;43703;51.060;-0.086;2022-10-16T02:54:31;99361.21;;;8.67;67.66
57885;BME280;43703;51.060;-0.086;2022-10-16T02:56:57;99362.46;;;8.63;67.09
57885;BME280;43703;51.060;-0.086;2022-10-16T02:59:22;99367.87;;;8.75;66.25
57885;BME280;43703;51.060;-0.086;2022-10-16T03:01:47;99375.77;;;8.28;68.40
57885;BME280;43703;51.060;-0.086;2022-10-16T03:04:13;99379.47;;;8.50;67.64
57885;BME280;43703;51.060;-0.086;2022-10-16T03:06:38;99382.32;;;8.46;67.50
57885;BME280;43703;51.060;-0.086;2022-10-16T03:09:03;99384.55;;;8.76;67.48
57885;BME280;43703;51.060;-0.086;2022-10-16T03:11:27;99381.18;;;9.00;65.72
57885;BME280;43703;51.060;-0.086;2022-10-16T03:13:54;99378.98;;;8.48;66.25
57885;BME280;43703;51.060;-0.086;2022-10-16T03:16:18;99383.79;;;7.93;68.29
57885;BME280;43703;51.060;-0.086;2022-10-16T03:18:48;99383.74;;;8.43;67.38
57885;BME280;43703;51.060;-0.086;2022-10-16T03:21:10;99381.84;;;8.33;67.86
57885;BME280;43703;51.060;-0.086;2022-10-16T03:23:35;99385.78;;;8.46;68.09
57885;BME280;43703;51.060;-0.086;2022-10-16T03:26:00;99388.05;;;8.04;67.74
57885;BME280;43703;51.060;-0.086;2022-10-16T03:28:25;99392.53;;;8.13;68.62
57885;BME280;43703;51.060;-0.086;2022-10-16T03:30:51;99390.93;;;8.09;67.82
57885;BME280;43703;51.060;-0.086;2022-10-16T03:33:17;99394.03;;;7.72;69.26
57885;BME280;43703;51.060;-0.086;2022-10-16T03:35:43;99398.73;;;7.70;68.37
57885;BME280;43703;51.060;-0.086;2022-10-16T03:38:08;99400.34;;;7.89;69.71
57885;BME280;43703;51.060;-0.086;2022-10-16T03:40:33;99407.57;;;7.94;67.53
57885;BME280;43703;51.060;-0.086;2022-10-16T03:42:58;99412.52;;;8.26;67.66
57885;BME280;43703;51.060;-0.086;2022-10-16T03:45:24;99413.53;;;8.03;68.05
57885;BME280;43703;51.060;-0.086;2022-10-16T03:47:49;99419.31;;;8.01;68.27
57885;BME280;43703;51.060;-0.086;2022-10-16T03:50:14;99418.71;;;7.99;68.36
57885;BME280;43703;51.060;-0.086;2022-10-16T03:52:39;99421.68;;;8.01;68.51
57885;BME280;43703;51.060;-0.086;2022-10-16T03:55:05;99429.98;;;8.07;68.27
57885;BME280;43703;51.060;-0.086;2022-10-16T03:57:29;99432.75;;;7.85;68.18
57885;BME280;43703;51.060;-0.086;2022-10-16T03:59:54;99430.72;;;8.82;66.08
57885;BME280;43703;51.060;-0.086;2022-10-16T04:02:20;99431.19;;;8.42;66.92
57885;BME280;43703;51.060;-0.086;2022-10-16T04:04:45;99438.07;;;8.10;67.94
57885;BME280;43703;51.060;-0.086;2022-10-16T04:07:10;99443.12;;;8.57;67.57
57885;BME280;43703;51.060;-0.086;2022-10-16T04:09:35;99447.30;;;8.57;68.03
57885;BME280;43703;51.060;-0.086;2022-10-16T04:12:00;99452.08;;;8.63;68.24
57885;BME280;43703;51.060;-0.086;2022-10-16T04:14:25;99457.14;;;9.11;67.11
57885;BME280;43703;51.060;-0.086;2022-10-16T04:16:50;99462.31;;;7.51;71.25
57885;BME280;43703;51.060;-0.086;2022-10-16T04:19:16;99467.91;;;8.54;69.20
57885;BME280;43703;51.060;-0.086;2022-10-16T04:21:40;99474.12;;;8.50;69.11
57885;BME280;43703;51.060;-0.086;2022-10-16T04:24:06;99470.69;;;8.61;68.62
57885;BME280;43703;51.060;-0.086;2022-10-16T04:26:31;99474.58;;;9.07;67.43
57885;BME280;43703;51.060;-0.086;2022-10-16T04:28:56;99480.72;;;8.76;67.79
57885;BME280;43703;51.060;-0.086;2022-10-16T04:31:22;99487.74;;;8.65;70.57
57885;BME280;43703;51.060;-0.086;2022-10-16T04:33:47;99488.96;;;7.96;71.43
57885;BME280;43703;51.060;-0.086;2022-10-16T04:36:12;99495.06;;;7.12;74.57
57885;BME280;43703;51.060;-0.086;2022-10-16T04:38:38;99499.57;;;7.82;73.44
57885;BME280;43703;51.060;-0.086;2022-10-16T04:41:03;99501.35;;;8.37;72.40
57885;BME280;43703;51.060;-0.086;2022-10-16T04:43:28;99506.65;;;7.50;75.79
57885;BME280;43703;51.060;-0.086;2022-10-16T04:45:53;99507.48;;;7.68;75.38
57885;BME280;43703;51.060;-0.086;2022-10-16T04:48:18;99511.04;;;7.36;77.08
57885;BME280;43703;51.060;-0.086;2022-10-16T04:50:44;99511.85;;;7.48;75.46
57885;BME280;43703;51.060;-0.086;2022-10-16T04:53:08;99516.24;;;8.19;75.16
57885;BME280;43703;51.060;-0.086;2022-10-16T04:55:34;99514.85;;;7.37;76.35
57885;BME280;43703;51.060;-0.086;2022-10-16T04:57:59;99519.80;;;7.55;75.96
57885;BME280;43703;51.060;-0.086;2022-10-16T05:00:24;99523.65;;;7.50;76.04
57885;BME280;43703;51.060;-0.086;2022-10-16T05:02:50;99524.58;;;7.56;75.71
57885;BME280;43703;51.060;-0.086;2022-10-16T05:05:14;99527.59;;;7.36;77.06
57885;BME280;43703;51.060;-0.086;2022-10-16T05:07:39;99531.46;;;7.69;75.31
57885;BME280;43703;51.060;-0.086;2022-10-16T05:10:05;99534.25;;;8.02;73.75
57885;BME280;43703;51.060;-0.086;2022-10-16T05:12:29;99536.73;;;7.18;76.46
57885;BME280;43703;51.060;-0.086;2022-10-16T05:14:54;99538.66;;;6.90;78.19
57885;BME280;43703;51.060;-0.086;2022-10-16T05:17:20;99548.31;;;7.63;76.11
57885;BME280;43703;51.060;-0.086;2022-10-16T05:19:45;99552.90;;;7.49;75.37
57885;BME280;43703;51.060;-0.086;2022-10-16T05:22:10;99559.63;;;7.75;74.95
57885;BME280;43703;51.060;-0.086;2022-10-16T05:24:36;99562.05;;;8.18;72.40
57885;BME280;43703;51.060;-0.086;2022-10-16T05:27:01;99566.43;;;8.86;71.76
57885;BME280;43703;51.060;-0.086;2022-10-16T05:29:26;99568.63;;;8.19;72.15
57885;BME280;43703;51.060;-0.086;2022-10-16T05:31:52;99570.46;;;8.74;70.66
57885;BME280;43703;51.060;-0.086;2022-10-16T05:34:16;99576.88;;;9.70;67.85
57885;BME280;43703;51.060;-0.086;2022-10-16T05:36:41;99576.44;;;8.61;69.36
57885;BME280;43703;51.060;-0.086;2022-10-16T05:39:06;99584.48;;;8.43;69.95
57885;BME280;43703;51.060;-0.086;2022-10-16T05:41:31;99583.90;;;8.40;70.46
57885;BME280;43703;51.060;-0.086;2022-10-16T05:43:57;99588.06;;;8.99;68.49
57885;BME280;43703;51.060;-0.086;2022-10-16T05:46:21;99594.88;;;8.62;69.52
57885;BME280;43703;51.060;-0.086;2022-10-16T05:48:47;99602.41;;;8.48;69.40
57885;BME280;43703;51.060;-0.086;2022-10-16T05:51:13;99603.91;;;9.16;67.01
57885;BME280;43703;51.060;-0.086;2022-10-16T05:53:38;99605.65;;;9.95;65.76
57885;BME280;43703;51.060;-0.086;2022-10-16T05:56:03;99609.24;;;9.22;66.22
57885;BME280;43703;51.060;-0.086;2022-10-16T05:58:29;99614.11;;;9.62;66.12
57885;BME280;43703;51.060;-0.086;2022-10-16T06:00:55;99618.76;;;9.61;64.75
57885;BME280;43703;51.060;-0.086;2022-10-16T06:03:17;99621.50;;;9.38;65.72
57885;BME280;43703;51.060;-0.086;2022-10-16T06:05:42;99622.78;;;9.48;65.12
57885;BME280;43703;51.060;-0.086;2022-10-16T06:08:07;99625.00;;;9.19;64.89
57885;BME280;43703;51.060;-0.086;2022-10-16T06:10:32;99629.96;;;9.16;65.54
57885;BME280;43703;51.060;-0.086;2022-10-16T06:12:58;99627.35;;;9.62;64.88
57885;BME280;43703;51.060;-0.086;2022-10-16T06:15:23;99630.75;;;9.09;65.69
57885;BME280;43703;51.060;-0.086;2022-10-16T06:17:48;99635.68;;;8.68;67.13
57885;BME280;43703;51.060;-0.086;2022-10-16T06:20:13;99636.58;;;9.39;65.86
57885;BME280;43703;51.060;-0.086;2022-10-16T06:22:39;99638.11;;;8.49;67.49
57885;BME280;43703;51.060;-0.086;2022-10-16T06:25:05;99633.77;;;8.72;67.15
57885;BME280;43703;51.060;-0.086;2022-10-16T06:27:29;99632.60;;;9.14;66.58
57885;BME280;43703;51.060;-0.086;2022-10-16T06:29:55;99631.56;;;9.54;65.42
57885;BME280;43703;51.060;-0.086;2022-10-16T06:32:20;99636.40;;;9.99;64.56
57885;BME280;43703;51.060;-0.086;2022-10-16T06:34:45;99641.26;;;9.71;64.14
57885;BME280;43703;51.060;-0.086;2022-10-16T06:37:10;99640.01;;;10.18;63.84
57885;BME280;43703;51.060;-0.086;2022-10-16T06:39:36;99642.19;;;9.09;63.40
57885;BME280;43703;51.060;-0.086;2022-10-16T06:42:01;99646.27;;;9.28;64.52
57885;BME280;43703;51.060;-0.086;2022-10-16T06:44:27;99650.86;;;10.04;64.06
57885;BME280;43703;51.060;-0.086;2022-10-16T06:46:53;99658.10;;;9.41;64.19
57885;BME280;43703;51.060;-0.086;2022-10-16T06:49:18;99652.49;;;9.58;63.46
57885;BME280;43703;51.060;-0.086;2022-10-16T06:51:44;99654.58;;;9.81;63.30
57885;BME280;43703;51.060;-0.086;2022-10-16T06:54:09;99658.09;;;9.98;63.41
57885;BME280;43703;51.060;-0.086;2022-10-16T06:56:35;99664.42;;;9.93;63.58
57885;BME280;43703;51.060;-0.086;2022-10-16T06:59:00;99666.54;;;10.78;65.12
57885;BME280;43703;51.060;-0.086;2022-10-16T07:01:25;99670.15;;;10.86;64.73
57885;BME280;43703;51.060;-0.086;2022-10-16T07:03:50;99677.60;;;10.88;62.88
57885;BME280;43703;51.060;-0.086;2022-10-16T07:06:17;99687.79;;;11.16;63.63
57885;BME280;43703;51.060;-0.086;2022-10-16T07:08:42;99693.51;;;11.03;62.72
57885;BME280;43703;51.060;-0.086;2022-10-16T07:11:06;99697.75;;;10.95;64.31
57885;BME280;43703;51.060;-0.086;2022-10-16T07:13:33;99699.24;;;11.14;62.93
57885;BME280;43703;51.060;-0.086;2022-10-16T07:15:56;99697.97;;;10.86;61.81
57885;BME280;43703;51.060;-0.086;2022-10-16T07:18:21;99698.98;;;10.73;62.12
57885;BME280;43703;51.060;-0.086;2022-10-16T07:20:46;99700.19;;;11.10;62.72
57885;BME280;43703;51.060;-0.086;2022-10-16T07:23:11;99704.86;;;11.03;61.90
57885;BME280;43703;51.060;-0.086;2022-10-16T07:25:36;99706.18;;;11.08;61.97
57885;BME280;43703;51.060;-0.086;2022-10-16T07:28:01;99708.07;;;11.23;62.46
57885;BME280;43703;51.060;-0.086;2022-10-16T07:30:26;99711.56;;;11.52;62.98
57885;BME280;43703;51.060;-0.086;2022-10-16T07:32:51;99714.34;;;11.14;62.38
57885;BME280;43703;51.060;-0.086;2022-10-16T07:35:16;99721.23;;;11.14;63.37
57885;BME280;43703;51.060;-0.086;2022-10-16T07:37:44;99730.80;;;10.89;62.04
57885;BME280;43703;51.060;-0.086;2022-10-16T07:40:08;99736.30;;;11.06;62.75
57885;BME280;43703;51.060;-0.086;2022-10-16T07:42:32;99744.87;;;11.27;63.37
57885;BME280;43703;51.060;-0.086;2022-10-16T07:44:57;99743.87;;;11.04;62.39
57885;BME280;43703;51.060;-0.086;2022-10-16T07:47:23;99747.90;;;11.14;62.60
57885;BME280;43703;51.060;-0.086;2022-10-16T07:49:49;99747.44;;;10.49;62.54
57885;BME280;43703;51.060;-0.086;2022-10-16T07:52:15;99742.67;;;10.60;62.46
57885;BME280;43703;51.060;-0.086;2022-10-16T07:54:40;99739.12;;;10.42;62.86
57885;BME280;43703;51.060;-0.086;2022-10-16T07:57:05;99740.62;;;10.49;62.03
57885;BME280;43703;51.060;-0.086;2022-10-16T07:59:31;99746.09;;;10.27;62.17
57885;BME280;43703;51.060;-0.086;2022-10-16T08:01:57;99753.03;;;9.97;63.01
57885;BME280;43703;51.060;-0.086;2022-10-16T08:04:22;99759.03;;;10.26;62.92
57885;BME280;43703;51.060;-0.086;2022-10-16T08:06:48;99760.37;;;10.65;62.11
57885;BME280;43703;51.060;-0.086;2022-10-16T08:09:13;99766.15;;;10.22;61.36
57885;BME280;43703;51.060;-0.086;2022-10-16T08:11:39;99768.84;;;10.76;62.04
57885;BME280;43703;51.060;-0.086;2022-10-16T08:14:04;99765.83;;;11.61;62.19
57885;BME280;43703;51.060;-0.086;2022-10-16T08:16:30;99764.48;;;11.77;60.83
57885;BME280;43703;51.060;-0.086;2022-10-16T08:18:56;99760.17;;;11.57;59.55
57885;BME280;43703;51.060;-0.086;2022-10-16T08:21:23;99761.72;;;12.59;58.81
57885;BME280;43703;51.060;-0.086;2022-10-16T08:23:48;99765.91;;;12.91;58.57
57885;BME280;43703;51.060;-0.086;2022-10-16T08:26:13;99771.24;;;13.50;55.86
57885;BME280;43703;51.060;-0.086;2022-10-16T08:28:40;99776.26;;;14.06;56.28
57885;BME280;43703;51.060;-0.086;2022-10-16T08:31:07;99780.33;;;14.43;54.16
57885;BME280;43703;51.060;-0.086;2022-10-16T08:33:31;99793.36;;;13.72;52.69
57885;BME280;43703;51.060;-0.086;2022-10-16T08:35:57;99791.41;;;14.37;56.40
57885;BME280;43703;51.060;-0.086;2022-10-16T08:38:23;99794.18;;;14.25;51.98
57885;BME280;43703;51.060;-0.086;2022-10-16T08:40:48;99799.51;;;14.35;52.93
57885;BME280;43703;51.060;-0.086;2022-10-16T08:43:26;99796.60;;;14.40;52.24
57885;BME280;43703;51.060;-0.086;2022-10-16T08:45:49;99793.97;;;14.13;54.73
57885;BME280;43703;51.060;-0.086;2022-10-16T08:48:16;99792.43;;;14.47;54.07
57885;BME280;43703;51.060;-0.086;2022-10-16T08:50:33;99802.35;;;14.76;52.89
57885;BME280;43703;51.060;-0.086;2022-10-16T08:52:58;99805.59;;;14.57;51.74
57885;BME280;43703;51.060;-0.086;2022-10-16T08:55:30;99810.43;;;14.81;55.01
57885;BME280;43703;51.060;-0.086;2022-10-16T08:57:49;99812.59;;;14.73;53.74
57885;BME280;43703;51.060;-0.086;2022-10-16T09:00:15;99818.44;;;14.83;53.42
57885;BME280;43703;51.060;-0.086;2022-10-16T09:02:48;99821.98;;;14.61;53.67
57885;BME280;43703;51.060;-0.086;2022-10-16T09:05:19;99820.70;;;15.41;52.74
57885;BME280;43703;51.060;-0.086;2022-10-16T09:07:37;99821.28;;;15.59;49.11
57885;BME280;43703;51.060;-0.086;2022-10-16T09:10:09;99824.33;;;16.19;51.65
57885;BME280;43703;51.060;-0.086;2022-10-16T09:12:28;99826.40;;;16.69;50.96
57885;BME280;43703;51.060;-0.086;2022-10-16T09:14:57;99827.53;;;16.93;49.00
57885;BME280;43703;51.060;-0.086;2022-10-16T09:17:24;99827.42;;;17.50;48.55
57885;BME280;43703;51.060;-0.086;2022-10-16T09:19:46;99823.51;;;17.12;47.25
57885;BME280;43703;51.060;-0.086;2022-10-16T09:22:12;99823.24;;;17.13;46.94
57885;BME280;43703;51.060;-0.086;2022-10-16T09:24:33;99827.51;;;17.86;47.79
57885;BME280;43703;51.060;-0.086;2022-10-16T09:26:58;99828.28;;;18.53;47.48
57885;BME280;43703;51.060;-0.086;2022-10-16T09:29:24;99828.79;;;18.34;47.26
57885;BME280;43703;51.060;-0.086;2022-10-16T09:31:50;99830.66;;;18.80;46.55
57885;BME280;43703;51.060;-0.086;2022-10-16T09:34:23;99829.90;;;18.96;47.88
57885;BME280;43703;51.060;-0.086;2022-10-16T09:36:44;99832.38;;;19.47;44.26
57885;BME280;43703;51.060;-0.086;2022-10-16T09:39:09;99832.96;;;18.03;46.49
57885;BME280;43703;51.060;-0.086;2022-10-16T09:41:35;99834.60;;;17.72;45.83
57885;BME280;43703;51.060;-0.086;2022-10-16T09:44:01;99838.15;;;17.36;45.21
57885;BME280;43703;51.060;-0.086;2022-10-16T09:46:28;99841.43;;;17.17;45.95
57885;BME280;43703;51.060;-0.086;2022-10-16T09:48:52;99844.39;;;17.20;45.55
57885;BME280;43703;51.060;-0.086;2022-10-16T09:51:20;99849.49;;;16.80;49.66
57885;BME280;43703;51.060;-0.086;2022-10-16T09:53:44;99850.90;;;16.77;48.47
57885;BME280;43703;51.060;-0.086;2022-10-16T09:56:10;99850.89;;;16.62;47.22
57885;BME280;43703;51.060;-0.086;2022-10-16T09:58:34;99853.03;;;16.24;48.89
57885;BME280;43703;51.060;-0.086;2022-10-16T10:01:00;99859.99;;;16.52;49.47
57885;BME280;43703;51.060;-0.086;2022-10-16T10:03:33;99861.06;;;16.83;52.00
57885;BME280;43703;51.060;-0.086;2022-10-16T10:05:51;99860.10;;;17.31;48.61
57885;BME280;43703;51.060;-0.086;2022-10-16T10:08:17;99862.85;;;16.28;46.03
57885;BME280;43703;51.060;-0.086;2022-10-16T10:10:43;99863.15;;;17.27;45.26
57885;BME280;43703;51.060;-0.086;2022-10-16T10:13:16;99866.75;;;17.83;46.43
57885;BME280;43703;51.060;-0.086;2022-10-16T10:15:41;99861.58;;;17.81;43.81
57885;BME280;43703;51.060;-0.086;2022-10-16T10:18:00;99859.32;;;17.02;45.69
57885;BME280;43703;51.060;-0.086;2022-10-16T10:20:28;99861.03;;;17.50;44.22
57885;BME280;43703;51.060;-0.086;2022-10-16T10:22:51;99862.77;;;17.32;45.03
57885;BME280;43703;51.060;-0.086;2022-10-16T10:25:24;99863.03;;;15.60;48.36
57885;BME280;43703;51.060;-0.086;2022-10-16T10:27:55;99863.38;;;17.32;48.62
57885;BME280;43703;51.060;-0.086;2022-10-16T10:30:15;99864.01;;;17.05;46.72
57885;BME280;43703;51.060;-0.086;2022-10-16T10:32:40;99864.07;;;16.31;49.99
57885;BME280;43703;51.060;-0.086;2022-10-16T10:35:12;99861.19;;;17.30;48.14
57885;BME280;43703;51.060;-0.086;2022-10-16T10:37:39;99854.79;;;16.45;47.80
57885;BME280;43703;51.060;-0.086;2022-10-16T10:39:56;99857.00;;;16.99;48.19
57885;BME280;43703;51.060;-0.086;2022-10-16T10:42:24;99852.81;;;16.94;50.32
57885;BME280;43703;51.060;-0.086;2022-10-16T10:44:52;99851.29;;;16.18;48.94
57885;BME280;43703;51.060;-0.086;2022-10-16T10:47:15;99854.12;;;15.00;50.07
57885;BME280;43703;51.060;-0.086;2022-10-16T10:49:46;99851.53;;;16.65;47.98
57885;BME280;43703;51.060;-0.086;2022-10-16T10:52:10;99849.77;;;15.93;48.50
57885;BME280;43703;51.060;-0.086;2022-10-16T10:54:32;99852.16;;;15.76;48.77
57885;BME280;43703;51.060;-0.086;2022-10-16T10:56:57;99852.69;;;15.97;49.81
57885;BME280;43703;51.060;-0.086;2022-10-16T10:59:30;99850.79;;;15.27;51.14
57885;BME280;43703;51.060;-0.086;2022-10-16T11:01:50;99847.24;;;16.13;53.70
57885;BME280;43703;51.060;-0.086;2022-10-16T11:04:25;99840.11;;;15.51;49.95
57885;BME280;43703;51.060;-0.086;2022-10-16T11:06:39;99849.78;;;16.04;51.34
57885;BME280;43703;51.060;-0.086;2022-10-16T11:09:09;99854.08;;;16.05;50.31
57885;BME280;43703;51.060;-0.086;2022-10-16T11:11:32;99853.83;;;15.35;49.83
57885;BME280;43703;51.060;-0.086;2022-10-16T11:13:57;99854.04;;;15.43;53.78
57885;BME280;43703;51.060;-0.086;2022-10-16T11:16:22;99851.25;;;16.38;51.34
57885;BME280;43703;51.060;-0.086;2022-10-16T11:18:51;99845.65;;;15.36;50.75
57885;BME280;43703;51.060;-0.086;2022-10-16T11:21:12;99841.40;;;15.21;51.57
57885;BME280;43703;51.060;-0.086;2022-10-16T11:23:41;99840.03;;;15.35;51.54
57885;BME280;43703;51.060;-0.086;2022-10-16T11:26:04;99843.09;;;16.24;51.48
57885;BME280;43703;51.060;-0.086;2022-10-16T11:28:32;99844.26;;;16.31;49.84
57885;BME280;43703;51.060;-0.086;2022-10-16T11:30:57;99841.92;;;16.30;51.75
57885;BME280;43703;51.060;-0.086;2022-10-16T11:33:27;99845.58;;;16.54;49.95
57885;BME280;43703;51.060;-0.086;2022-10-16T11:35:51;99851.75;;;16.37;50.26
57885;BME280;43703;51.060;-0.086;2022-10-16T11:38:16;99854.62;;;15.60;51.14
57885;BME280;43703;51.060;-0.086;2022-10-16T11:40:39;99854.46;;;15.38;51.84
57885;BME280;43703;51.060;-0.086;2022-10-16T11:43:08;99849.35;;;15.21;51.93
57885;BME280;43703;51.060;-0.086;2022-10-16T11:45:33;99848.20;;;14.44;52.38
57885;BME280;43703;51.060;-0.086;2022-10-16T11:48:00;99845.86;;;15.01;53.07
57885;BME280;43703;51.060;-0.086;2022-10-16T11:50:25;99843.37;;;15.52;52.29
57885;BME280;43703;51.060;-0.086;2022-10-16T11:52:51;99841.56;;;14.73;55.23
57885;BME280;43703;51.060;-0.086;2022-10-16T11:55:16;99844.94;;;14.46;53.25
57885;BME280;43703;51.060;-0.086;2022-10-16T11:57:42;99848.45;;;13.91;53.40
57885;BME280;43703;51.060;-0.086;2022-10-16T12:00:08;99846.41;;;14.02;53.75
57885;BME280;43703;51.060;-0.086;2022-10-16T12:02:37;99842.23;;;13.67;54.80
57885;BME280;43703;51.060;-0.086;2022-10-16T12:05:02;99841.44;;;13.33;55.54
57885;BME280;43703;51.060;-0.086;2022-10-16T12:07:23;99842.73;;;14.29;54.79
57885;BME280;43703;51.060;-0.086;2022-10-16T12:09:45;99837.30;;;15.22;54.20
57885;BME280;43703;51.060;-0.086;2022-10-16T12:14:39;99824.12;;;15.66;50.93
57885;BME280;43703;51.060;-0.086;2022-10-16T12:17:22;99827.99;;;16.39;49.74
57885;BME280;43703;51.060;-0.086;2022-10-16T12:19:30;99820.15;;;15.23;50.20
57885;BME280;43703;51.060;-0.086;2022-10-16T12:21:56;99817.37;;;15.42;49.34
57885;BME280;43703;51.060;-0.086;2022-10-16T12:24:31;99820.67;;;16.08;51.11
57885;BME280;43703;51.060;-0.086;2022-10-16T12:26:46;99819.61;;;14.82;51.34
57885;BME280;43703;51.060;-0.086;2022-10-16T12:29:21;99819.82;;;15.02;52.95
57885;BME280;43703;51.060;-0.086;2022-10-16T12:31:43;99825.08;;;14.53;53.40
57885;BME280;43703;51.060;-0.086;2022-10-16T12:34:03;99825.87;;;14.98;53.30
57885;BME280;43703;51.060;-0.086;2022-10-16T12:36:32;99824.89;;;14.07;55.53
57885;BME280;43703;51.060;-0.086;2022-10-16T12:38:55;99817.19;;;14.81;54.59
57885;BME280;43703;51.060;-0.086;2022-10-16T12:41:25;99813.01;;;14.37;54.35
57885;BME280;43703;51.060;-0.086;2022-10-16T12:43:47;99811.88;;;14.44;53.71
57885;BME280;43703;51.060;-0.086;2022-10-16T12:46:21;99817.69;;;15.42;54.21
57885;BME280;43703;51.060;-0.086;2022-10-16T12:48:41;99814.35;;;15.89;52.24